createdAt,value
2017-11-01T00:02:01.554Z,97.90
2017-11-01T00:04:29.813Z,97.90
2017-11-01T00:06:58.069Z,97.80
2017-11-01T00:09:27.093Z,97.70
2017-11-01T00:11:55.348Z,97.70
2017-11-01T00:14:23.606Z,97.60
2017-11-01T00:16:52.629Z,97.90
2017-11-01T00:19:21.679Z,97.30
2017-11-01T00:21:50.278Z,97.30
2017-11-01T00:24:19.660Z,97.40
2017-11-01T00:26:47.873Z,97.50
2017-11-01T00:29:16.882Z,97.30
2017-11-01T00:31:45.138Z,97.30
2017-11-01T00:34:13.385Z,97.20
2017-11-01T00:36:42.451Z,97.50
2017-11-01T00:39:10.727Z,97.20
2017-11-01T00:41:39.004Z,97.00
2017-11-01T00:44:07.280Z,97.10
2017-11-01T00:46:35.555Z,97.10
2017-11-01T00:49:03.810Z,97.10
2017-11-01T00:51:32.821Z,97.10
2017-11-01T00:54:01.114Z,97.10
2017-11-01T00:56:29.370Z,97.20
2017-11-01T00:58:57.634Z,96.90
2017-11-01T01:01:26.638Z,97.10
2017-11-01T01:03:55.676Z,96.70
2017-11-01T01:06:23.930Z,96.70
2017-11-01T01:08:52.195Z,96.80
2017-11-01T01:11:21.232Z,96.90
2017-11-01T01:13:49.466Z,96.90
2017-11-01T01:16:17.738Z,96.80
2017-11-01T01:18:46.801Z,96.70
2017-11-01T01:21:15.815Z,96.70
2017-11-01T01:23:44.850Z,97.00
2017-11-01T01:26:13.124Z,97.00
2017-11-01T01:28:41.372Z,96.90
2017-11-01T01:31:10.421Z,96.80
2017-11-01T01:33:38.640Z,96.80
2017-11-01T01:36:06.944Z,96.80
2017-11-01T01:38:35.246Z,96.90
2017-11-01T01:41:03.483Z,96.60
2017-11-01T01:43:31.723Z,97.00
2017-11-01T01:45:59.978Z,96.90
2017-11-01T01:48:28.247Z,97.00
2017-11-01T01:50:57.326Z,97.30
2017-11-01T01:53:25.602Z,97.00
2017-11-01T01:55:54.609Z,97.20
2017-11-01T01:58:22.854Z,97.20
2017-11-01T02:00:51.136Z,97.10
2017-11-01T02:03:19.400Z,97.10
2017-11-01T02:05:47.676Z,97.30
2017-11-01T02:08:15.939Z,97.30
2017-11-01T02:10:44.958Z,97.30
2017-11-01T02:13:13.231Z,97.30
2017-11-01T02:15:42.245Z,97.00
2017-11-01T02:18:10.513Z,97.00
2017-11-01T02:20:38.795Z,97.30
2017-11-01T02:23:07.050Z,97.00
2017-11-01T02:25:35.356Z,97.10
2017-11-01T02:28:03.649Z,97.00
2017-11-01T02:30:31.955Z,97.20
2017-11-01T02:33:00.978Z,97.20
2017-11-01T02:35:29.288Z,97.10
2017-11-01T02:37:57.544Z,97.10
2017-11-01T02:40:26.695Z,97.40
2017-11-01T02:42:54.938Z,97.30
2017-11-01T02:45:23.219Z,97.40
2017-11-01T02:47:51.508Z,97.30
2017-11-01T02:50:19.755Z,97.40
2017-11-01T02:52:48.034Z,96.80
2017-11-01T02:55:16.346Z,97.20
2017-11-01T02:57:44.620Z,97.20
2017-11-01T03:00:12.863Z,97.40
2017-11-01T03:02:41.218Z,97.40
2017-11-01T03:05:09.452Z,97.30
2017-11-01T03:07:37.768Z,97.30
2017-11-01T03:10:06.900Z,97.60
2017-11-01T03:12:35.190Z,97.20
2017-11-01T03:15:03.464Z,97.10
2017-11-01T03:17:31.756Z,97.50
2017-11-01T03:19:59.989Z,97.60
2017-11-01T03:22:28.267Z,97.80
2017-11-01T03:24:57.326Z,97.80
2017-11-01T03:27:25.587Z,97.70
2017-11-01T03:29:53.846Z,97.90
2017-11-01T03:32:22.119Z,97.80
2017-11-01T03:34:50.402Z,98.00
2017-11-01T03:37:18.675Z,98.00
2017-11-01T03:39:46.932Z,98.40
2017-11-01T03:42:15.196Z,98.60
2017-11-01T03:44:43.495Z,98.40
2017-11-01T03:47:11.758Z,98.60
2017-11-01T03:49:40.022Z,98.50
2017-11-01T03:52:08.764Z,98.60
2017-11-01T03:54:37.022Z,98.50
2017-11-01T03:57:06.102Z,98.50
2017-11-01T03:59:35.122Z,98.50
2017-11-01T04:02:03.411Z,98.50
2017-11-01T04:04:31.670Z,98.30
2017-11-01T04:06:59.911Z,98.20
2017-11-01T04:09:28.972Z,98.30
2017-11-01T04:11:57.240Z,98.30
2017-11-01T04:14:25.497Z,98.30
2017-11-01T04:16:53.779Z,98.30
2017-11-01T04:19:22.935Z,98.30
2017-11-01T04:21:52.296Z,98.50
2017-11-01T04:24:20.542Z,98.50
2017-11-01T04:26:49.553Z,98.40
2017-11-01T04:29:17.823Z,98.40
2017-11-01T04:31:46.102Z,98.10
2017-11-01T04:34:14.352Z,98.10
2017-11-01T04:36:43.346Z,98.20
2017-11-01T04:39:12.376Z,98.20
2017-11-01T04:41:40.659Z,98.20
2017-11-01T04:44:08.894Z,98.10
2017-11-01T04:46:37.936Z,98.40
2017-11-01T04:49:06.191Z,98.10
2017-11-01T04:51:34.442Z,97.90
2017-11-01T04:54:03.483Z,97.90
2017-11-01T04:56:31.751Z,97.90
2017-11-01T04:58:59.995Z,97.80
2017-11-01T05:01:29.074Z,98.20
2017-11-01T05:03:57.364Z,98.20
2017-11-01T05:06:28.579Z,98.20
2017-11-01T05:08:57.673Z,98.20
2017-11-01T05:11:31.632Z,98.40
2017-11-01T05:14:03.643Z,98.10
2017-11-01T05:16:32.718Z,98.10
2017-11-01T05:19:00.979Z,98.10
2017-11-01T05:21:29.255Z,98.30
2017-11-01T05:23:57.561Z,98.20
2017-11-01T05:26:25.804Z,98.30
2017-11-01T05:28:54.103Z,98.20
2017-11-01T05:31:22.374Z,98.30
2017-11-01T05:33:50.650Z,98.40
2017-11-01T05:36:18.935Z,98.50
2017-11-01T05:38:47.213Z,98.50
2017-11-01T05:41:15.474Z,99.00
2017-11-01T05:43:43.742Z,98.70
2017-11-01T05:46:12.012Z,98.70
2017-11-01T05:48:40.453Z,98.80
2017-11-01T05:51:08.685Z,98.70
2017-11-01T05:53:37.688Z,98.80
2017-11-01T05:56:06.778Z,98.90
2017-11-01T05:58:35.815Z,98.90
2017-11-01T06:01:04.874Z,99.00
2017-11-01T06:03:33.888Z,98.80
2017-11-01T06:06:02.187Z,98.70
2017-11-01T06:08:30.493Z,98.80
2017-11-01T06:10:58.774Z,98.80
2017-11-01T06:13:27.874Z,98.40
2017-11-01T06:15:56.092Z,98.40
2017-11-01T06:18:24.447Z,98.60
2017-11-01T06:20:53.464Z,98.80
2017-11-01T06:23:21.753Z,98.80
2017-11-01T06:25:50.049Z,98.60
2017-11-01T06:28:18.295Z,98.80
2017-11-01T06:30:46.553Z,98.70
2017-11-01T06:33:15.574Z,98.60
2017-11-01T06:35:43.873Z,98.50
2017-11-01T06:38:12.111Z,98.60
2017-11-01T06:40:40.458Z,98.50
2017-11-01T06:43:08.708Z,98.50
2017-11-01T06:45:36.981Z,98.50
2017-11-01T06:48:05.267Z,98.50
2017-11-01T06:50:33.526Z,98.40
2017-11-01T06:53:01.845Z,98.20
2017-11-01T06:55:30.142Z,98.30
2017-11-01T06:57:58.427Z,98.20
2017-11-01T07:00:39.448Z,98.20
2017-11-01T07:03:07.763Z,98.20
2017-11-01T07:05:36.133Z,98.10
2017-11-01T07:08:04.380Z,98.20
2017-11-01T07:10:32.610Z,98.20
2017-11-01T07:13:02.926Z,98.30
2017-11-01T07:15:31.197Z,98.20
2017-11-01T07:18:00.228Z,98.40
2017-11-01T07:20:28.949Z,98.40
2017-11-01T07:22:57.212Z,98.60
2017-11-01T07:25:25.463Z,98.30
2017-11-01T07:27:53.755Z,97.50
2017-11-01T07:30:21.986Z,97.60
2017-11-01T07:32:51.026Z,97.50
2017-11-01T07:35:19.917Z,97.50
2017-11-01T07:37:48.179Z,98.20
2017-11-01T07:40:16.427Z,97.50
2017-11-01T07:42:45.462Z,97.40
2017-11-01T07:45:13.793Z,97.40
2017-11-01T07:47:42.014Z,97.30
2017-11-01T07:50:10.284Z,97.20
2017-11-01T07:52:38.581Z,97.20
2017-11-01T07:55:06.825Z,97.20
2017-11-01T07:57:35.115Z,96.60
2017-11-01T08:00:04.144Z,96.90
2017-11-01T08:02:33.239Z,97.20
2017-11-01T08:05:01.484Z,97.20
2017-11-01T08:07:30.511Z,96.80
2017-11-01T08:09:58.906Z,97.10
2017-11-01T08:12:27.151Z,96.90
2017-11-01T08:14:55.411Z,96.80
2017-11-01T08:17:23.686Z,96.70
2017-11-01T08:19:52.693Z,96.40
2017-11-01T08:22:21.028Z,96.40
2017-11-01T08:24:49.261Z,96.60
2017-11-01T08:27:17.583Z,96.60
2017-11-01T08:29:45.858Z,96.70
2017-11-01T08:32:14.916Z,96.40
2017-11-01T08:34:43.228Z,96.40
2017-11-01T08:37:11.496Z,96.50
2017-11-01T08:39:40.578Z,96.40
2017-11-01T08:42:08.828Z,96.40
2017-11-01T08:44:37.143Z,96.10
2017-11-01T08:47:06.460Z,96.10
2017-11-01T08:49:35.511Z,96.30
2017-11-01T08:52:03.776Z,96.20
2017-11-01T08:54:32.063Z,95.90
2017-11-01T08:57:00.347Z,95.70
2017-11-01T08:59:28.617Z,95.70
2017-11-01T09:01:56.902Z,95.80
2017-11-01T09:04:25.208Z,95.60
2017-11-01T09:06:53.496Z,95.70
2017-11-01T09:09:21.766Z,95.60
2017-11-01T09:11:50.062Z,95.30
2017-11-01T09:14:18.334Z,95.40
2017-11-01T09:16:47.024Z,95.40
2017-11-01T09:19:15.415Z,95.10
2017-11-01T09:21:43.654Z,95.10
2017-11-01T09:24:11.935Z,95.00
2017-11-01T09:26:40.291Z,95.00
2017-11-01T09:29:08.541Z,94.80
2017-11-01T09:31:36.803Z,94.60
2017-11-01T09:34:05.053Z,94.90
2017-11-01T09:36:33.349Z,94.80
2017-11-01T09:39:01.612Z,94.80
2017-11-01T09:41:30.925Z,94.80
2017-11-01T09:43:59.213Z,94.80
2017-11-01T09:46:28.297Z,94.50
2017-11-01T09:48:56.815Z,94.50
2017-11-01T09:51:25.825Z,94.50
2017-11-01T09:53:54.107Z,94.50
2017-11-01T09:56:22.548Z,94.40
2017-11-01T09:58:50.932Z,94.70
2017-11-01T10:01:19.172Z,94.70
2017-11-01T10:03:47.460Z,94.90
2017-11-01T10:06:15.751Z,94.80
2017-11-01T10:08:44.046Z,94.70
2017-11-01T10:11:13.068Z,94.70
2017-11-01T10:13:41.329Z,94.70
2017-11-01T10:16:09.608Z,95.10
2017-11-01T10:18:37.882Z,95.10
2017-11-01T10:21:06.174Z,94.30
2017-11-01T10:23:34.512Z,94.00
2017-11-01T10:26:02.814Z,94.50
2017-11-01T10:28:31.174Z,94.20
2017-11-01T10:30:59.471Z,94.00
2017-11-01T10:33:28.508Z,93.40
2017-11-01T10:35:57.877Z,93.40
2017-11-01T10:38:26.334Z,93.20
2017-11-01T10:40:56.243Z,93.20
2017-11-01T10:43:26.284Z,93.40
2017-11-01T10:45:55.321Z,93.70
2017-11-01T10:48:23.596Z,93.60
2017-11-01T10:50:51.889Z,93.70
2017-11-01T10:53:20.191Z,93.30
2017-11-01T10:55:49.248Z,93.80
2017-11-01T10:58:17.489Z,93.80
2017-11-01T11:00:45.779Z,93.70
2017-11-01T11:03:14.126Z,93.50
2017-11-01T11:05:42.404Z,92.70
2017-11-01T11:08:10.672Z,93.20
2017-11-01T11:10:38.965Z,92.30
2017-11-01T11:13:08.028Z,92.10
2017-11-01T11:15:36.311Z,92.00
2017-11-01T11:18:04.749Z,92.30
2017-11-01T11:20:33.006Z,92.30
2017-11-01T11:23:01.361Z,92.50
2017-11-01T11:25:30.420Z,92.50
2017-11-01T11:27:58.722Z,92.50
2017-11-01T11:30:27.004Z,92.40
2017-11-01T11:32:55.343Z,92.10
2017-11-01T11:35:23.696Z,91.70
2017-11-01T11:37:51.954Z,91.40
2017-11-01T11:40:21.074Z,91.00
2017-11-01T11:42:49.652Z,91.00
2017-11-01T11:45:19.493Z,92.30
2017-11-01T11:47:48.150Z,92.20
2017-11-01T11:50:16.409Z,92.00
2017-11-01T11:52:46.943Z,91.90
2017-11-01T11:55:16.226Z,91.70
2017-11-01T11:57:45.055Z,92.20
2017-11-01T12:00:14.205Z,92.40
2017-11-01T12:02:42.635Z,92.40
2017-11-01T12:05:11.730Z,92.60
2017-11-01T12:07:40.912Z,92.60
2017-11-01T12:10:09.271Z,92.40
2017-11-01T12:12:37.572Z,92.10
2017-11-01T12:15:06.662Z,91.60
2017-11-01T12:17:34.962Z,91.60
2017-11-01T12:20:03.989Z,91.90
2017-11-01T12:22:32.280Z,91.90
2017-11-01T12:25:00.584Z,92.10
2017-11-01T12:27:29.671Z,91.50
2017-11-01T12:29:57.930Z,91.50
2017-11-01T12:32:26.231Z,91.80
2017-11-01T12:34:54.529Z,92.00
2017-11-01T12:37:22.900Z,91.50
2017-11-01T12:39:51.181Z,91.60
2017-11-01T12:42:19.442Z,91.50
2017-11-01T12:44:48.578Z,91.40
2017-11-01T12:47:16.943Z,91.60
2017-11-01T12:49:46.896Z,91.10
2017-11-01T12:52:15.901Z,91.30
2017-11-01T12:54:44.144Z,91.30
2017-11-01T12:57:13.207Z,91.30
2017-11-01T12:59:41.551Z,91.30
2017-11-01T13:02:09.898Z,91.40
2017-11-01T13:04:38.258Z,91.00
2017-11-01T13:07:07.448Z,90.50
2017-11-01T13:09:35.707Z,90.50
2017-11-01T13:12:04.005Z,90.30
2017-11-01T13:14:33.509Z,89.70
2017-11-01T13:17:01.834Z,89.60
2017-11-01T13:19:30.122Z,89.20
2017-11-01T13:21:58.414Z,88.80
2017-11-01T13:24:26.721Z,89.00
2017-11-01T13:26:55.023Z,89.40
2017-11-01T13:29:24.080Z,89.20
2017-11-01T13:31:52.331Z,89.20
2017-11-01T13:34:20.615Z,89.40
2017-11-01T13:36:48.881Z,89.10
2017-11-01T13:39:17.222Z,88.30
2017-11-01T13:41:45.486Z,88.30
2017-11-01T13:44:13.820Z,89.00
2017-11-01T13:46:42.135Z,89.10
2017-11-01T13:49:10.408Z,87.50
2017-11-01T13:51:38.729Z,87.80
2017-11-01T13:54:07.760Z,88.20
2017-11-01T13:56:36.957Z,88.20
2017-11-01T13:59:05.262Z,88.70
2017-11-01T14:01:33.529Z,89.50
2017-11-01T14:04:01.880Z,89.60
2017-11-01T14:06:30.219Z,88.10
2017-11-01T14:08:59.270Z,88.00
2017-11-01T14:11:27.994Z,88.00
2017-11-01T14:13:56.330Z,86.80
2017-11-01T14:16:24.764Z,86.90
2017-11-01T14:18:53.831Z,87.00
2017-11-01T14:21:22.065Z,87.10
2017-11-01T14:23:50.354Z,86.20
2017-11-01T14:26:18.619Z,86.00
2017-11-01T14:28:46.907Z,86.20
2017-11-01T14:31:15.227Z,86.70
2017-11-01T14:33:43.818Z,87.00
2017-11-01T14:36:13.598Z,86.40
2017-11-01T14:38:41.930Z,86.20
2017-11-01T14:41:10.950Z,86.10
2017-11-01T14:43:40.144Z,86.00
2017-11-01T14:46:08.445Z,86.00
2017-11-01T14:48:36.690Z,86.30
2017-11-01T14:51:04.961Z,86.30
2017-11-01T14:53:33.249Z,86.00
2017-11-01T14:56:02.290Z,86.10
2017-11-01T14:58:30.601Z,86.10
2017-11-01T15:01:00.549Z,86.50
2017-11-01T15:03:29.864Z,86.50
2017-11-01T15:05:58.132Z,86.50
2017-11-01T15:08:26.366Z,87.00
2017-11-01T15:10:57.009Z,87.40
2017-11-01T15:13:26.235Z,87.00
2017-11-01T15:15:55.401Z,87.70
2017-11-01T15:18:23.723Z,88.10
2017-11-01T15:20:52.362Z,87.90
2017-11-01T15:23:21.459Z,88.10
2017-11-01T15:25:49.802Z,88.10
2017-11-01T15:28:18.998Z,88.30
2017-11-01T15:30:47.620Z,88.20
2017-11-01T15:33:16.735Z,89.00
2017-11-01T15:35:44.992Z,88.40
2017-11-01T15:38:15.126Z,88.40
2017-11-01T15:40:44.180Z,88.40
2017-11-01T15:43:12.809Z,88.30
2017-11-01T15:45:42.491Z,88.70
2017-11-01T15:48:10.751Z,88.70
2017-11-01T15:50:39.010Z,89.40
2017-11-01T15:53:07.325Z,89.70
2017-11-01T15:55:35.695Z,89.70
2017-11-01T15:58:04.017Z,90.00
2017-11-01T16:00:32.323Z,90.20
2017-11-01T16:03:00.685Z,90.40
2017-11-01T16:05:30.078Z,90.70
2017-11-01T16:07:58.322Z,90.60
2017-11-01T16:10:26.660Z,90.10
2017-11-01T16:12:54.933Z,90.30
2017-11-01T16:15:23.195Z,90.30
2017-11-01T16:17:51.512Z,90.30
2017-11-01T16:20:19.771Z,90.50
2017-11-01T16:22:48.137Z,90.80
2017-11-01T16:25:16.404Z,91.00
2017-11-01T16:27:44.800Z,90.90
2017-11-01T16:30:13.083Z,91.30
2017-11-01T16:32:41.327Z,91.60
2017-11-01T16:35:10.412Z,92.00
2017-11-01T16:37:38.687Z,92.30
2017-11-01T16:40:07.013Z,92.00
2017-11-01T16:42:35.360Z,92.00
2017-11-01T16:45:04.404Z,92.40
2017-11-01T16:47:32.818Z,92.30
2017-11-01T16:50:01.061Z,92.50
2017-11-01T16:52:29.350Z,92.90
2017-11-01T16:57:31.931Z,93.20
2017-11-01T17:00:00.214Z,93.10
2017-11-01T17:02:28.480Z,93.20
2017-11-01T17:04:56.808Z,93.00
2017-11-01T17:07:26.309Z,92.00
2017-11-01T17:09:54.565Z,92.00
2017-11-01T17:12:22.850Z,92.00
2017-11-01T17:14:51.282Z,92.30
2017-11-01T17:17:19.626Z,92.50
2017-11-01T17:19:47.911Z,92.50
2017-11-01T17:22:16.225Z,92.70
2017-11-01T17:24:45.210Z,92.90
2017-11-01T17:27:13.513Z,93.00
2017-11-01T17:29:41.896Z,93.30
2017-11-01T17:32:11.032Z,93.40
2017-11-01T17:34:40.867Z,93.50
2017-11-01T17:37:10.058Z,93.80
2017-11-01T17:39:38.420Z,93.80
2017-11-01T17:42:06.721Z,93.90
2017-11-01T17:44:35.048Z,93.90
2017-11-01T17:47:03.346Z,93.90
2017-11-01T17:49:31.707Z,93.90
2017-11-01T17:52:00.183Z,94.10
2017-11-01T17:54:28.927Z,94.00
2017-11-01T17:56:57.262Z,94.10
2017-11-01T17:59:25.976Z,94.40
2017-11-01T18:01:54.369Z,94.20
2017-11-01T18:04:22.991Z,94.30
2017-11-01T18:06:52.057Z,94.50
2017-11-01T18:09:22.067Z,94.60
2017-11-01T18:11:51.290Z,94.50
2017-11-01T18:14:19.617Z,94.50
2017-11-01T18:16:47.905Z,94.50
2017-11-01T18:19:16.200Z,94.50
2017-11-01T18:21:44.895Z,94.60
2017-11-01T18:24:13.994Z,94.80
2017-11-01T18:26:43.977Z,94.90
2017-11-01T18:29:12.497Z,94.70
2017-11-01T18:31:41.565Z,94.80
2017-11-01T18:34:10.893Z,94.80
2017-11-01T18:36:40.001Z,94.90
2017-11-01T18:39:09.268Z,94.90
2017-11-01T18:41:39.823Z,94.90
2017-11-01T18:44:08.109Z,95.10
2017-11-01T18:46:38.775Z,95.00
2017-11-01T18:49:10.758Z,95.00
2017-11-01T18:51:39.721Z,95.00
2017-11-01T18:54:08.403Z,94.90
2017-11-01T18:56:37.717Z,94.80
2017-11-01T18:59:08.510Z,94.80
2017-11-01T19:01:37.399Z,95.20
2017-11-01T19:04:09.052Z,95.00
2017-11-01T19:06:37.941Z,95.00
2017-11-01T19:09:08.890Z,94.90
2017-11-01T19:11:39.430Z,95.00
2017-11-01T19:14:08.809Z,95.00
2017-11-01T19:16:38.096Z,95.00
2017-11-01T19:19:08.051Z,94.90
2017-11-01T19:21:37.123Z,94.80
2017-11-01T19:24:06.650Z,94.80
2017-11-01T19:26:34.963Z,94.70
2017-11-01T19:29:03.409Z,94.70
2017-11-01T19:31:33.637Z,94.60
2017-11-01T19:34:02.906Z,94.60
2017-11-01T19:36:31.671Z,95.00
2017-11-01T19:39:01.106Z,95.00
2017-11-01T19:41:31.393Z,95.20
2017-11-01T19:44:00.072Z,95.10
2017-11-01T19:46:30.007Z,95.20
2017-11-01T19:49:01.394Z,95.40
2017-11-01T19:51:31.333Z,95.40
2017-11-01T19:54:00.532Z,95.70
2017-11-01T19:56:30.575Z,95.70
2017-11-01T19:59:00.330Z,95.70
2017-11-01T20:01:29.385Z,95.80
2017-11-01T20:04:01.106Z,95.80
2017-11-01T20:06:31.349Z,96.10
2017-11-01T20:09:00.095Z,96.10
2017-11-01T20:11:29.398Z,96.20
2017-11-01T20:13:59.047Z,96.20
2017-11-01T20:16:30.786Z,96.40
2017-11-01T20:18:59.881Z,96.10
2017-11-01T20:21:28.960Z,96.10
2017-11-01T20:24:00.417Z,96.70
2017-11-01T20:26:30.435Z,96.90
2017-11-01T20:29:01.174Z,97.00
2017-11-01T20:31:32.694Z,97.10
2017-11-01T20:34:02.324Z,97.10
2017-11-01T20:36:30.701Z,97.10
2017-11-01T20:39:00.339Z,97.00
2017-11-01T20:41:33.505Z,97.40
2017-11-01T20:44:04.504Z,97.10
2017-11-01T20:46:35.138Z,97.70
2017-11-01T20:49:04.566Z,97.40
2017-11-01T20:51:34.182Z,97.50
2017-11-01T20:54:04.363Z,97.50
2017-11-01T20:56:32.946Z,97.50
2017-11-01T20:59:02.099Z,97.30
2017-11-01T21:01:30.411Z,97.20
2017-11-01T21:04:00.320Z,97.00
2017-11-01T21:06:28.787Z,97.00
2017-11-01T21:08:59.619Z,97.00
2017-11-01T21:11:28.137Z,97.00
2017-11-01T21:13:59.185Z,96.10
2017-11-01T21:16:30.182Z,96.10
2017-11-01T21:18:58.466Z,97.10
2017-11-01T21:21:27.236Z,97.10
2017-11-01T21:23:56.537Z,97.20
2017-11-01T21:26:25.520Z,97.20
2017-11-01T21:28:55.605Z,97.10
2017-11-01T21:31:24.042Z,97.20
2017-11-01T21:33:54.118Z,96.40
2017-11-01T21:36:24.870Z,96.20
2017-11-01T21:38:53.871Z,96.20
2017-11-01T21:41:22.452Z,95.40
2017-11-01T21:43:52.603Z,95.20
2017-11-01T21:46:20.887Z,95.10
2017-11-01T21:48:49.315Z,95.10
2017-11-01T21:51:18.728Z,94.80
2017-11-01T21:53:47.850Z,94.20
2017-11-01T21:56:17.375Z,94.30
2017-11-01T21:58:46.698Z,94.10
2017-11-01T22:01:16.794Z,94.10
2017-11-01T22:03:45.285Z,94.00
2017-11-01T22:06:14.583Z,93.90
2017-11-01T22:08:44.445Z,94.30
2017-11-01T22:11:12.730Z,94.10
2017-11-01T22:13:41.356Z,94.00
2017-11-01T22:16:09.717Z,93.90
2017-11-01T22:18:38.113Z,93.90
2017-11-01T22:21:07.182Z,93.90
2017-11-01T22:23:35.484Z,93.70
2017-11-01T22:26:05.144Z,93.70
2017-11-01T22:28:33.472Z,93.70
2017-11-01T22:31:01.782Z,93.50
2017-11-01T22:33:31.063Z,93.50
2017-11-01T22:35:59.650Z,93.50
2017-11-01T22:38:28.834Z,93.60
2017-11-01T22:40:57.077Z,93.10
2017-11-01T22:43:25.374Z,93.40
2017-11-01T22:45:54.028Z,93.20
2017-11-01T22:48:22.323Z,93.10
2017-11-01T22:50:51.505Z,92.80
2017-11-01T22:53:20.045Z,93.10
2017-11-01T22:55:48.949Z,93.20
2017-11-01T22:58:18.447Z,92.90
2017-11-01T23:00:47.514Z,93.10
2017-11-01T23:03:16.784Z,92.50
2017-11-01T23:05:55.181Z,92.50
2017-11-01T23:08:24.197Z,93.10
2017-11-01T23:10:53.035Z,93.10
2017-11-01T23:13:22.257Z,93.10
2017-11-01T23:15:51.818Z,93.20
2017-11-01T23:18:20.852Z,93.10
2017-11-01T23:20:49.904Z,92.80
2017-11-01T23:23:18.241Z,92.80
2017-11-01T23:25:47.301Z,92.70
2017-11-01T23:28:16.397Z,92.70
2017-11-01T23:30:45.466Z,92.60
2017-11-01T23:33:15.650Z,92.60
2017-11-01T23:35:44.686Z,92.50
2017-11-01T23:38:12.987Z,92.50
2017-11-01T23:40:41.239Z,92.40
2017-11-01T23:43:09.549Z,92.30
2017-11-01T23:45:37.797Z,92.30
2017-11-01T23:48:06.050Z,93.30
2017-11-01T23:50:35.020Z,93.20
2017-11-01T23:53:03.538Z,93.60
2017-11-01T23:55:31.805Z,93.50
2017-11-01T23:58:00.067Z,93.40
